Time;durP1;ratioP1;P1;durP2;ratioP2;P2;SDS_P1;SDS_P2;PMS_P1;PMS_P2;Temp;Humidity;BMP_temperature;BMP_pressure;BME280_temperature;BME280_humidity;BME280_pressure;Samples;Min_cycle;Max_cycle;Signal;HPM_P1;HPM_P2
2023/03/28 00:01:02;;;;;;;7.57;4.90;;;-0.20;99.90;;;;;;5093763;28;20457;-75
2023/03/28 00:03:34;;;;;;;7.13;4.67;;;-0.20;99.90;;;;;;5093134;28;20953;-76
2023/03/28 00:06:08;;;;;;;7.50;5.03;;;-0.20;99.90;;;;;;5093784;28;20516;-76
2023/03/28 00:08:38;;;;;;;6.40;4.80;;;-0.20;99.90;;;;;;5093371;28;20461;-75
2023/03/28 00:11:09;;;;;;;7.33;5.30;;;-0.20;99.90;;;;;;5093759;28;20540;-75
2023/03/28 00:13:37;;;;;;;7.03;5.30;;;-0.20;99.90;;;;;;5092281;28;20529;-74
2023/03/28 00:16:11;;;;;;;8.90;5.57;;;-0.10;99.90;;;;;;5093295;28;20457;-75
2023/03/28 00:18:40;;;;;;;7.13;5.43;;;-0.20;99.90;;;;;;5108355;28;20467;-74
2023/03/28 00:21:22;;;;;;;8.10;5.97;;;-0.20;99.90;;;;;;5113283;28;20459;-75
2023/03/28 00:23:51;;;;;;;7.57;5.47;;;-0.20;99.90;;;;;;5113225;28;20429;-74
2023/03/28 00:26:20;;;;;;;8.40;6.03;;;-0.20;99.90;;;;;;5102182;28;20488;-74
2023/03/28 00:28:48;;;;;;;8.67;6.00;;;-0.10;99.90;;;;;;5092789;28;20445;-75
2023/03/28 00:31:18;;;;;;;8.87;6.13;;;-0.10;99.90;;;;;;5092952;28;20487;-74
2023/03/28 00:33:46;;;;;;;7.50;5.97;;;-0.10;99.90;;;;;;5098763;28;20476;-74
2023/03/28 00:36:17;;;;;;;10.97;6.13;;;-0.10;99.90;;;;;;5114310;27;20559;-74
2023/03/28 00:38:45;;;;;;;8.00;6.13;;;-0.10;99.90;;;;;;5113089;28;20508;-77
2023/03/28 00:41:14;;;;;;;9.97;6.30;;;0.00;99.90;;;;;;5104301;28;20451;-75
2023/03/28 00:43:44;;;;;;;7.60;6.00;;;0.00;99.90;;;;;;5099830;28;20460;-74
2023/03/28 00:46:22;;;;;;;9.37;6.43;;;0.00;99.90;;;;;;5092537;28;21020;-74
2023/03/28 00:48:54;;;;;;;8.60;6.47;;;0.00;99.90;;;;;;5092141;28;20448;-79
2023/03/28 00:51:26;;;;;;;9.60;5.90;;;0.00;99.90;;;;;;5092353;28;21054;-75
2023/03/28 00:53:56;;;;;;;9.13;6.23;;;0.00;99.90;;;;;;5092026;28;20981;-76
2023/03/28 00:56:28;;;;;;;8.27;5.87;;;-0.10;99.90;;;;;;5092289;28;20921;-74
2023/03/28 00:58:57;;;;;;;8.37;5.90;;;-0.20;99.90;;;;;;5092493;28;20487;-76
2023/03/28 01:01:27;;;;;;;8.57;5.73;;;-0.20;99.90;;;;;;5092138;28;20465;-74
2023/03/28 01:04:01;;;;;;;8.47;5.37;;;-0.30;99.90;;;;;;5092028;28;20452;-76
2023/03/28 01:06:31;;;;;;;9.90;6.00;;;-0.30;99.90;;;;;;5092279;28;20480;-76
2023/03/28 01:09:06;;;;;;;8.27;5.80;;;-0.30;99.90;;;;;;5092291;28;20476;-74
2023/03/28 01:11:38;;;;;;;7.57;5.53;;;-0.40;99.90;;;;;;5091961;28;20907;-77
2023/03/28 01:14:07;;;;;;;9.60;6.17;;;-0.40;99.90;;;;;;5092135;28;20436;-77
2023/03/28 01:16:40;;;;;;;9.63;5.73;;;-0.40;99.90;;;;;;5092327;28;20480;-74
2023/03/28 01:19:20;;;;;;;9.50;6.50;;;-0.50;99.90;;;;;;5092047;28;20499;-77
2023/03/28 01:22:29;;;;;;;8.63;6.13;;;-0.50;99.90;;;;;;5109452;28;20497;-76
2023/03/28 01:25:23;;;;;;;10.73;6.50;;;-0.60;99.90;;;;;;5106995;28;20481;-74
2023/03/28 01:28:00;;;;;;;8.60;6.50;;;-0.50;99.90;;;;;;5101488;28;20580;-76
2023/03/28 01:30:58;;;;;;;8.93;6.87;;;-0.60;99.90;;;;;;5091495;28;20542;-75
2023/03/28 01:33:50;;;;;;;7.87;6.60;;;-0.70;99.90;;;;;;5091529;28;20460;-74
2023/03/28 01:36:58;;;;;;;9.00;7.40;;;-0.70;99.90;;;;;;5091687;28;20468;-76
2023/03/28 01:39:35;;;;;;;10.77;7.93;;;-0.70;99.90;;;;;;5091742;28;20448;-76
2023/03/28 01:42:17;;;;;;;11.03;8.20;;;-0.70;99.90;;;;;;5091415;28;20846;-77
2023/03/28 01:44:51;;;;;;;11.43;7.87;;;-0.70;99.90;;;;;;5092000;28;20455;-74
2023/03/28 01:47:25;;;;;;;12.63;8.33;;;-0.70;99.90;;;;;;5091609;28;21060;-75
2023/03/28 01:50:02;;;;;;;12.57;8.47;;;-0.70;99.90;;;;;;5091803;28;20527;-75
2023/03/28 01:52:36;;;;;;;9.77;7.80;;;-0.70;99.90;;;;;;5091662;28;20452;-77
2023/03/28 01:55:09;;;;;;;11.97;8.27;;;-0.70;99.90;;;;;;5092052;28;20468;-75
2023/03/28 01:57:44;;;;;;;11.30;8.27;;;-0.70;99.90;;;;;;5092560;28;20886;-74
2023/03/28 02:00:19;;;;;;;15.30;8.80;;;-0.70;99.90;;;;;;5092282;28;20455;-75
2023/03/28 02:02:52;;;;;;;12.60;9.30;;;-0.70;99.90;;;;;;5091935;28;20528;-78
2023/03/28 02:05:22;;;;;;;12.47;9.23;;;-0.80;99.90;;;;;;5091333;28;20488;-76
2023/03/28 02:07:53;;;;;;;12.07;9.97;;;-0.80;99.90;;;;;;5091308;28;20879;-76
2023/03/28 02:10:25;;;;;;;11.47;9.33;;;-0.80;99.90;;;;;;5091935;28;20422;-74
2023/03/28 02:12:56;;;;;;;11.03;9.67;;;-0.80;99.90;;;;;;5091727;28;20465;-73
2023/03/28 02:15:26;;;;;;;11.20;9.03;;;-0.80;99.90;;;;;;5091220;28;20930;-75
2023/03/28 02:18:00;;;;;;;13.17;9.60;;;-0.80;99.90;;;;;;5091490;28;20460;-74
2023/03/28 02:20:31;;;;;;;11.67;9.83;;;-0.80;99.90;;;;;;5099430;28;20461;-74
2023/03/28 02:23:03;;;;;;;13.47;10.03;;;-0.80;99.90;;;;;;5092479;28;20468;-75
2023/03/28 02:25:32;;;;;;;11.87;9.93;;;-0.80;99.90;;;;;;5107362;28;20436;-75
2023/03/28 02:28:04;;;;;;;14.30;11.33;;;-0.80;99.90;;;;;;5107658;28;20491;-74
2023/03/28 02:30:32;;;;;;;12.93;10.23;;;-0.80;99.90;;;;;;5107467;28;20492;-75
2023/03/28 02:33:03;;;;;;;12.90;10.67;;;-0.80;99.90;;;;;;5111194;28;20468;-74
2023/03/28 02:35:42;;;;;;;12.10;10.50;;;-0.70;99.90;;;;;;5111827;28;20525;-76
2023/03/28 02:38:21;;;;;;;13.47;10.80;;;-0.70;99.90;;;;;;5110773;28;20420;-75
2023/03/28 02:40:55;;;;;;;13.63;11.03;;;-0.60;99.90;;;;;;5091709;28;20431;-76
2023/03/28 02:43:52;;;;;;;15.17;11.20;;;-0.60;99.90;;;;;;5094255;28;20976;-75
2023/03/28 02:46:28;;;;;;;13.43;10.97;;;-0.50;99.90;;;;;;5100196;28;20941;-75
2023/03/28 02:49:24;;;;;;;15.93;11.20;;;-0.50;99.90;;;;;;5092212;28;20425;-74
2023/03/28 02:52:02;;;;;;;13.70;11.23;;;-0.40;99.90;;;;;;5094652;28;20502;-75
2023/03/28 02:54:37;;;;;;;12.73;10.67;;;-0.50;99.90;;;;;;5110790;27;20805;-75
2023/03/28 02:57:09;;;;;;;13.50;10.80;;;-0.40;99.90;;;;;;5094686;28;20957;-75
2023/03/28 02:59:43;;;;;;;13.43;10.97;;;-0.40;99.90;;;;;;5101475;28;20959;-75
2023/03/28 03:02:16;;;;;;;13.07;10.50;;;-0.40;99.90;;;;;;5114683;28;20707;-75
2023/03/28 03:04:49;;;;;;;12.87;10.90;;;-0.40;99.90;;;;;;5104376;28;20476;-76
2023/03/28 03:07:18;;;;;;;14.40;10.87;;;-0.30;99.90;;;;;;5094834;28;20476;-75
2023/03/28 03:09:52;;;;;;;12.43;10.93;;;-0.30;99.90;;;;;;5094701;28;20861;-76
2023/03/28 03:12:22;;;;;;;12.70;10.97;;;-0.30;99.90;;;;;;5094290;28;20834;-76
2023/03/28 03:14:50;;;;;;;13.67;10.67;;;-0.30;99.90;;;;;;5094124;28;20562;-76
2023/03/28 03:17:19;;;;;;;13.47;10.83;;;-0.20;99.90;;;;;;5097878;28;20447;-76
2023/03/28 03:19:47;;;;;;;12.87;10.40;;;-0.20;99.90;;;;;;5114983;28;20455;-77
2023/03/28 03:22:15;;;;;;;13.57;10.67;;;-0.20;99.90;;;;;;5114541;28;20481;-76
2023/03/28 03:24:50;;;;;;;13.77;10.53;;;-0.20;99.90;;;;;;5094483;28;20465;-76
2023/03/28 03:27:19;;;;;;;12.33;10.23;;;-0.30;99.90;;;;;;5093896;28;20571;-77
2023/03/28 03:29:48;;;;;;;12.93;10.37;;;-0.20;99.90;;;;;;5093678;28;20958;-77
2023/03/28 03:32:16;;;;;;;14.10;10.67;;;0.00;99.90;;;;;;5093492;28;20559;-75
2023/03/28 03:34:44;;;;;;;12.17;10.40;;;-0.30;99.90;;;;;;5093489;28;20457;-77
2023/03/28 03:37:13;;;;;;;13.47;10.33;;;-0.20;99.90;;;;;;5093963;28;20453;-77
2023/03/28 03:39:44;;;;;;;11.43;10.23;;;-0.30;99.90;;;;;;5093768;28;20476;-76
2023/03/28 03:42:14;;;;;;;13.83;11.13;;;-0.30;99.90;;;;;;5093524;28;20544;-75
2023/03/28 03:44:42;;;;;;;11.77;10.57;;;-0.30;99.90;;;;;;5093739;28;20946;-75
2023/03/28 03:47:10;;;;;;;12.33;10.03;;;-0.30;99.90;;;;;;5093436;28;20608;-77
2023/03/28 03:49:38;;;;;;;12.83;10.43;;;-0.30;99.90;;;;;;5093559;28;20481;-76
2023/03/28 03:52:06;;;;;;;12.87;10.67;;;-0.30;99.90;;;;;;5093689;28;20449;-77
2023/03/28 03:54:35;;;;;;;11.90;9.93;;;-0.30;99.90;;;;;;5093845;28;20483;-77
2023/03/28 03:57:05;;;;;;;13.73;9.23;;;-0.40;99.90;;;;;;5092705;28;20464;-77
2023/03/28 03:59:35;;;;;;;14.63;10.27;;;-0.40;99.90;;;;;;5093401;28;20471;-76
2023/03/28 04:02:03;;;;;;;11.90;10.33;;;-0.40;99.90;;;;;;5093248;28;20984;-74
2023/03/28 04:04:31;;;;;;;13.97;10.07;;;-0.40;99.90;;;;;;5093296;28;20795;-76
2023/03/28 04:07:01;;;;;;;12.57;10.43;;;-0.50;99.90;;;;;;5092437;28;20825;-75
2023/03/28 04:09:29;;;;;;;15.33;10.87;;;-0.60;99.90;;;;;;5093229;28;20511;-75
2023/03/28 04:11:58;;;;;;;12.23;10.13;;;-0.60;99.90;;;;;;5092981;28;20460;-76
2023/03/28 04:14:26;;;;;;;11.10;9.80;;;-0.40;99.90;;;;;;5098717;28;20456;-75
2023/03/28 04:16:56;;;;;;;15.73;11.70;;;-0.60;99.90;;;;;;5112459;28;20442;-75
2023/03/28 04:19:24;;;;;;;14.73;10.37;;;-0.60;99.90;;;;;;5104564;28;20842;-77
2023/03/28 04:21:55;;;;;;;13.30;10.50;;;-0.70;99.90;;;;;;5106065;28;20440;-74
2023/03/28 04:24:24;;;;;;;13.60;10.53;;;0.10;99.90;;;;;;5104264;28;20589;-76
2023/03/28 04:26:55;;;;;;;15.70;10.63;;;-0.80;99.90;;;;;;5093038;28;20463;-73
2023/03/28 04:29:29;;;;;;;13.57;11.40;;;-0.80;99.90;;;;;;5094421;28;21233;-74
2023/03/28 04:31:59;;;;;;;14.33;10.43;;;-0.90;99.90;;;;;;5107664;28;20432;-76
2023/03/28 04:34:29;;;;;;;15.27;10.50;;;-0.90;99.90;;;;;;5099459;28;20523;-76
2023/03/28 04:37:00;;;;;;;16.43;10.93;;;-1.00;99.90;;;;;;5092572;28;20926;-75
2023/03/28 04:39:30;;;;;;;14.80;11.30;;;-1.00;99.90;;;;;;5092430;28;20515;-76
2023/03/28 04:42:00;;;;;;;13.30;10.37;;;-1.00;99.90;;;;;;5092361;28;20977;-74
2023/03/28 04:44:29;;;;;;;14.27;10.57;;;-1.00;99.90;;;;;;5092398;28;20445;-76
2023/03/28 04:46:59;;;;;;;13.20;10.30;;;-1.00;99.90;;;;;;5092618;28;20476;-74
2023/03/28 04:49:27;;;;;;;16.03;10.90;;;-1.00;99.90;;;;;;5092316;28;20485;-77
2023/03/28 04:51:56;;;;;;;14.07;11.27;;;-1.10;99.90;;;;;;5092137;28;20464;-74
2023/03/28 04:54:24;;;;;;;14.80;11.17;;;-1.10;99.90;;;;;;5092669;28;20445;-77
2023/03/28 04:56:52;;;;;;;17.00;11.37;;;-1.10;99.90;;;;;;5092596;28;20448;-77
2023/03/28 04:59:20;;;;;;;16.37;11.30;;;-1.10;99.90;;;;;;5094236;28;20898;-74
2023/03/28 05:01:49;;;;;;;16.37;11.33;;;-1.20;99.90;;;;;;5112260;28;20447;-75
2023/03/28 05:04:20;;;;;;;13.83;10.57;;;-1.20;99.90;;;;;;5113491;28;20446;-75
2023/03/28 05:06:50;;;;;;;16.80;11.40;;;-1.20;99.90;;;;;;5112835;28;20443;-76
2023/03/28 05:09:18;;;;;;;13.57;11.20;;;-1.20;99.90;;;;;;5107408;28;20487;-76
2023/03/28 05:11:46;;;;;;;17.00;11.30;;;-1.20;99.90;;;;;;5092623;28;20516;-75
2023/03/28 05:14:15;;;;;;;16.67;11.77;;;-1.30;99.90;;;;;;5087490;28;20806;-74
2023/03/28 05:16:46;;;;;;;16.27;11.60;;;-1.20;99.90;;;;;;5112549;28;20534;-75
2023/03/28 05:19:14;;;;;;;15.37;12.07;;;-1.20;99.90;;;;;;5091274;28;20456;-77
2023/03/28 05:21:44;;;;;;;17.40;11.50;;;-1.20;99.90;;;;;;5091889;28;20998;-74
2023/03/28 05:24:12;;;;;;;18.00;11.63;;;-1.20;99.90;;;;;;5094498;28;20533;-75
2023/03/28 05:26:40;;;;;;;19.63;12.13;;;-1.20;99.90;;;;;;5105236;28;20444;-77
2023/03/28 05:29:08;;;;;;;17.03;12.50;;;-1.20;99.90;;;;;;5110129;28;20924;-74
2023/03/28 05:31:36;;;;;;;16.10;11.73;;;-1.20;99.90;;;;;;5110091;28;20957;-74
2023/03/28 05:34:04;;;;;;;15.63;12.00;;;-1.20;99.90;;;;;;5108615;28;20472;-77
2023/03/28 05:36:32;;;;;;;17.47;12.20;;;-1.20;99.90;;;;;;5111280;28;20543;-74
2023/03/28 05:39:02;;;;;;;14.53;12.07;;;-1.10;99.90;;;;;;5111323;28;20462;-76
2023/03/28 05:41:30;;;;;;;15.37;11.90;;;-1.10;99.90;;;;;;5104001;28;20552;-76
2023/03/28 05:43:58;;;;;;;16.90;11.20;;;-1.00;99.90;;;;;;5107325;28;20508;-75
2023/03/28 05:46:26;;;;;;;15.80;11.57;;;-1.00;99.90;;;;;;5101306;28;20453;-75
2023/03/28 05:48:55;;;;;;;13.60;11.23;;;-1.00;99.90;;;;;;5096668;28;20483;-75
2023/03/28 05:51:23;;;;;;;15.00;10.80;;;-1.00;99.90;;;;;;5100232;28;20521;-75
2023/03/28 05:53:51;;;;;;;21.30;12.87;;;-0.90;99.90;;;;;;5093462;28;20439;-74
2023/03/28 05:56:21;;;;;;;17.63;12.13;;;-0.80;99.90;;;;;;5093427;28;20958;-74
2023/03/28 05:58:50;;;;;;;14.97;10.77;;;-0.80;99.90;;;;;;5093202;28;20456;-75
2023/03/28 06:01:26;;;;;;;12.63;9.87;;;-0.80;99.90;;;;;;5109376;28;20985;-76
2023/03/28 06:03:56;;;;;;;13.20;10.47;;;-0.80;99.90;;;;;;5104503;28;21026;-76
2023/03/28 06:06:24;;;;;;;14.33;10.43;;;-0.70;99.90;;;;;;5109218;28;20479;-76
2023/03/28 06:08:53;;;;;;;12.57;10.00;;;-0.60;99.90;;;;;;5098725;28;21061;-76
2023/03/28 06:11:23;;;;;;;12.60;9.80;;;-0.50;99.90;;;;;;5110599;28;20454;-76
2023/03/28 06:13:51;;;;;;;14.07;9.93;;;-0.50;99.90;;;;;;5114351;28;20458;-76
2023/03/28 06:16:20;;;;;;;13.00;8.67;;;-0.50;99.90;;;;;;5112795;28;20542;-77
2023/03/28 06:18:58;;;;;;;15.63;10.43;;;-0.40;99.90;;;;;;5121047;27;20423;-76
2023/03/28 06:21:44;;;;;;;14.83;9.73;;;-0.30;99.90;;;;;;5115236;28;20850;-76
2023/03/28 06:24:13;;;;;;;12.93;9.90;;;-0.20;99.90;;;;;;5116815;28;20440;-76
2023/03/28 06:26:43;;;;;;;13.27;8.53;;;-0.10;99.90;;;;;;5116856;28;20900;-78
2023/03/28 06:29:12;;;;;;;13.67;8.90;;;0.00;99.90;;;;;;5116559;28;20514;-77
2023/03/28 06:31:40;;;;;;;11.17;8.23;;;0.20;99.90;;;;;;5117010;28;20213;-76
2023/03/28 06:34:09;;;;;;;10.57;7.00;;;0.40;99.90;;;;;;5106807;28;20305;-77
2023/03/28 06:36:37;;;;;;;11.50;7.83;;;0.60;99.90;;;;;;5096653;28;20739;-77
2023/03/28 06:39:06;;;;;;;11.07;7.53;;;0.80;99.90;;;;;;5096714;28;20284;-76
2023/03/28 06:41:34;;;;;;;11.83;7.07;;;0.90;99.90;;;;;;5096541;28;20245;-76
2023/03/28 06:44:06;;;;;;;8.43;5.80;;;1.30;99.90;;;;;;5097060;28;20257;-78
2023/03/28 06:46:34;;;;;;;10.13;6.03;;;1.60;99.90;;;;;;5096593;28;20223;-78
2023/03/28 06:49:03;;;;;;;11.20;6.37;;;2.00;99.90;;;;;;5096401;28;20233;-77
2023/03/28 06:51:32;;;;;;;11.83;6.63;;;1.90;99.90;;;;;;5096730;28;20211;-77
2023/03/28 06:54:00;;;;;;;13.77;6.57;;;1.80;99.90;;;;;;5095826;28;20237;-78
2023/03/28 06:56:29;;;;;;;11.93;6.13;;;2.00;99.90;;;;;;5095960;28;20207;-78
2023/03/28 06:58:57;;;;;;;13.83;6.40;;;2.00;99.90;;;;;;5096909;28;20248;-77
2023/03/28 07:01:27;;;;;;;10.63;6.33;;;1.50;99.90;;;;;;5096681;28;20210;-78
2023/03/28 07:03:58;;;;;;;10.43;6.80;;;1.50;99.90;;;;;;5096366;28;20699;-77
2023/03/28 07:06:27;;;;;;;10.97;6.07;;;1.50;99.90;;;;;;5096388;28;20202;-76
2023/03/28 07:08:57;;;;;;;9.33;6.30;;;1.40;99.90;;;;;;5096427;28;20237;-77
2023/03/28 07:11:26;;;;;;;9.10;6.07;;;1.50;99.90;;;;;;5099060;28;20215;-77
2023/03/28 07:13:54;;;;;;;10.43;5.60;;;1.30;99.90;;;;;;5116934;28;20597;-76
2023/03/28 07:16:23;;;;;;;9.97;5.60;;;1.30;99.90;;;;;;5108572;28;20621;-77
2023/03/28 07:18:53;;;;;;;8.27;5.57;;;1.50;99.90;;;;;;5096691;28;20238;-77
2023/03/28 07:21:21;;;;;;;7.23;5.30;;;1.60;99.90;;;;;;5097861;28;20420;-78
2023/03/28 07:23:49;;;;;;;11.50;5.83;;;1.80;99.90;;;;;;5095802;28;20218;-77
2023/03/28 07:26:18;;;;;;;9.53;5.13;;;1.70;99.90;;;;;;5111045;28;20263;-76
2023/03/28 07:28:46;;;;;;;9.73;4.60;;;1.70;99.90;;;;;;5116886;28;20214;-76
2023/03/28 07:31:14;;;;;;;10.23;4.67;;;2.00;99.90;;;;;;5116042;28;20203;-76
2023/03/28 07:33:42;;;;;;;9.33;5.10;;;2.00;99.90;;;;;;5108287;28;20218;-77
2023/03/28 07:36:15;;;;;;;7.77;4.33;;;2.10;99.90;;;;;;5095994;28;20207;-76
2023/03/28 07:38:44;;;;;;;8.13;4.03;;;3.20;99.90;;;;;;5095945;28;20738;-77
2023/03/28 07:41:16;;;;;;;6.57;3.73;;;4.00;99.90;;;;;;5096039;28;20229;-78
2023/03/28 07:43:45;;;;;;;5.93;3.60;;;4.50;99.90;;;;;;5096103;28;20260;-77
2023/03/28 07:46:15;;;;;;;8.13;3.50;;;5.40;99.90;;;;;;5088127;28;20210;-77
2023/03/28 07:48:45;;;;;;;9.67;4.00;;;6.40;99.90;;;;;;5095635;28;20577;-76
2023/03/28 07:51:16;;;;;;;7.07;3.23;;;7.10;99.90;;;;;;5095293;28;20338;-76
2023/03/28 07:53:45;;;;;;;8.87;3.73;;;7.40;99.90;;;;;;5094834;28;20292;-77
2023/03/28 07:56:14;;;;;;;6.83;2.73;;;8.30;99.90;;;;;;5096220;28;20647;-78
2023/03/28 07:58:42;;;;;;;5.20;2.83;;;8.80;99.90;;;;;;5096622;28;20215;-76
2023/03/28 08:01:12;;;;;;;6.10;3.03;;;8.60;99.90;;;;;;5094690;28;20199;-77
2023/03/28 08:03:41;;;;;;;5.13;3.00;;;8.40;99.90;;;;;;5115543;28;20210;-79
2023/03/28 08:06:12;;;;;;;8.93;3.00;;;8.40;99.90;;;;;;5105047;28;20206;-76
2023/03/28 08:09:00;;;;;;;6.17;2.97;;;9.20;99.60;;;;;;5117397;28;20191;-78
2023/03/28 08:11:29;;;;;;;7.10;3.00;;;10.20;97.40;;;;;;5108803;28;20215;-77
2023/03/28 08:13:57;;;;;;;7.50;3.30;;;10.70;94.40;;;;;;5108681;28;20206;-78
2023/03/28 08:16:26;;;;;;;6.33;2.73;;;11.30;91.30;;;;;;5097364;28;20301;-79
2023/03/28 08:18:56;;;;;;;6.43;3.30;;;11.20;90.50;;;;;;5097278;28;20210;-77
2023/03/28 08:21:38;;;;;;;7.00;3.00;;;11.10;90.90;;;;;;5096853;28;20202;-76
2023/03/28 08:24:09;;;;;;;6.37;3.33;;;9.90;93.10;;;;;;5093895;28;20213;-77
2023/03/28 08:26:45;;;;;;;6.37;2.90;;;9.10;97.30;;;;;;5094486;28;20236;-77
2023/03/28 08:29:15;;;;;;;6.27;2.83;;;8.70;96.40;;;;;;5093847;28;20187;-79
2023/03/28 08:31:44;;;;;;;5.57;2.63;;;7.90;97.90;;;;;;5094534;28;20206;-77
2023/03/28 08:34:12;;;;;;;4.57;2.50;;;7.40;98.80;;;;;;5093714;28;20227;-77
2023/03/28 08:36:43;;;;;;;6.10;3.03;;;7.70;99.90;;;;;;5093381;28;20592;-79
2023/03/28 08:39:13;;;;;;;5.97;2.70;;;7.70;98.90;;;;;;5094268;28;20206;-77
2023/03/28 08:42:09;;;;;;;6.00;2.80;;;9.00;97.50;;;;;;5094150;28;20257;-78
2023/03/28 08:44:50;;;;;;;6.27;3.00;;;9.80;95.70;;;;;;5076973;28;20213;-77
2023/03/28 08:47:24;;;;;;;6.37;2.90;;;10.90;91.30;;;;;;5093469;28;20234;-78
2023/03/28 08:50:00;;;;;;;6.10;2.77;;;10.70;90.40;;;;;;5094177;28;20231;-78
2023/03/28 08:52:29;;;;;;;5.10;2.60;;;9.90;93.70;;;;;;5093040;28;20245;-77
2023/03/28 08:55:03;;;;;;;6.50;2.70;;;9.00;91.10;;;;;;5094299;28;20572;-76
2023/03/28 08:57:35;;;;;;;3.90;2.17;;;8.70;92.90;;;;;;5093611;28;20224;-76
2023/03/28 09:00:13;;;;;;;4.80;2.30;;;9.80;92.50;;;;;;5094089;28;20203;-77
2023/03/28 09:02:43;;;;;;;5.57;2.50;;;9.50;91.10;;;;;;5093052;28;20203;-77
2023/03/28 09:05:15;;;;;;;4.73;2.03;;;10.20;90.60;;;;;;5093930;28;20210;-76
2023/03/28 09:07:58;;;;;;;5.73;2.50;;;9.80;87.10;;;;;;5093711;28;20559;-79
2023/03/28 09:10:34;;;;;;;5.13;3.27;;;9.70;88.10;;;;;;5110536;28;20725;-78
2023/03/28 09:13:18;;;;;;;6.23;2.67;;;8.40;92.70;;;;;;5107736;28;20267;-76
2023/03/28 09:16:20;;;;;;;5.83;2.90;;;8.40;93.30;;;;;;5093210;28;20389;-78
2023/03/28 09:19:09;;;;;;;5.20;2.33;;;9.00;93.60;;;;;;5092572;28;20211;-77
2023/03/28 09:21:48;;;;;;;3.87;2.20;;;7.80;93.20;;;;;;5093733;28;20199;-76
2023/03/28 09:24:31;;;;;;;3.67;2.13;;;8.80;93.10;;;;;;5094220;28;20205;-78
2023/03/28 09:27:06;;;;;;;6.93;2.50;;;11.00;88.80;;;;;;5092060;28;20203;-77
2023/03/28 09:29:38;;;;;;;6.00;2.50;;;11.90;87.80;;;;;;5092069;28;20660;-76
2023/03/28 09:32:15;;;;;;;7.30;4.70;;;12.20;79.20;;;;;;5091315;28;20241;-77
2023/03/28 09:34:48;;;;;;;5.30;2.10;;;12.40;80.50;;;;;;5091517;28;20216;-77
2023/03/28 09:37:28;;;;;;;5.43;2.47;;;12.50;73.80;;;;;;5093196;28;20302;-77
2023/03/28 09:40:00;;;;;;;6.57;2.40;;;11.50;77.60;;;;;;5092611;28;20217;-77
2023/03/28 09:42:42;;;;;;;3.63;1.77;;;12.50;76.40;;;;;;5092372;28;20221;-76
2023/03/28 09:45:25;;;;;;;4.20;1.97;;;12.80;74.50;;;;;;5092817;28;20289;-77
2023/03/28 09:47:54;;;;;;;3.13;2.00;;;14.30;67.70;;;;;;5093270;28;20591;-78
2023/03/28 09:50:23;;;;;;;5.50;2.20;;;13.70;67.10;;;;;;5093744;28;20234;-77
2023/03/28 09:52:51;;;;;;;3.93;2.00;;;12.50;68.00;;;;;;5094664;28;20211;-77
2023/03/28 09:55:22;;;;;;;5.33;2.40;;;12.50;67.50;;;;;;5114453;28;20728;-77
2023/03/28 09:58:10;;;;;;;3.53;1.87;;;11.00;72.20;;;;;;5113397;28;20202;-77
2023/03/28 10:00:42;;;;;;;4.67;1.90;;;10.60;77.50;;;;;;5108235;28;20211;-76
2023/03/28 10:03:21;;;;;;;3.10;1.90;;;11.00;76.70;;;;;;5092483;28;20611;-76
2023/03/28 10:05:51;;;;;;;5.27;1.90;;;11.60;79.80;;;;;;5092225;28;20241;-77
2023/03/28 10:08:23;;;;;;;3.47;1.80;;;11.20;69.40;;;;;;5093902;28;20581;-77
2023/03/28 10:10:58;;;;;;;3.80;1.70;;;10.90;70.70;;;;;;5092319;28;20226;-76
2023/03/28 10:13:28;;;;;;;4.07;1.90;;;10.20;69.50;;;;;;5091896;28;20320;-78
2023/03/28 10:15:58;;;;;;;4.77;1.80;;;9.50;73.00;;;;;;5092233;28;20290;-76
2023/03/28 10:18:28;;;;;;;4.07;1.80;;;9.60;79.00;;;;;;5092056;28;20653;-77
2023/03/28 10:21:01;;;;;;;2.57;1.60;;;9.40;80.50;;;;;;5092255;28;20348;-77
2023/03/28 10:23:30;;;;;;;4.37;1.60;;;8.90;77.20;;;;;;5091891;28;20210;-77
2023/03/28 10:26:02;;;;;;;4.30;1.90;;;8.30;77.20;;;;;;5092370;28;20631;-77
2023/03/28 10:31:28;;;;;;;8.10;2.63;;;7.10;88.20;;;;;;5230665;22;20233;-76
2023/03/28 10:33:58;;;;;;;5.50;2.20;;;8.20;91.40;;;;;;5012562;28;20631;-76
2023/03/28 10:36:30;;;;;;;5.93;1.90;;;10.20;85.00;;;;;;5015388;28;20234;-77
2023/03/28 10:38:59;;;;;;;3.40;1.63;;;11.30;70.30;;;;;;5031065;28;20194;-75
2023/03/28 10:41:28;;;;;;;4.00;1.73;;;11.80;71.70;;;;;;5022421;28;20278;-75
2023/03/28 10:43:57;;;;;;;4.40;2.00;;;12.40;67.70;;;;;;5007784;28;20265;-74
2023/03/28 10:46:31;;;;;;;3.17;1.70;;;11.50;66.40;;;;;;5009782;28;20284;-76
2023/03/28 10:49:04;;;;;;;3.50;1.80;;;10.80;66.30;;;;;;5007765;28;20292;-75
2023/03/28 10:51:33;;;;;;;5.03;1.80;;;9.20;71.10;;;;;;4996460;28;20233;-76
2023/03/28 10:54:24;;;;;;;4.23;2.00;;;9.10;85.60;;;;;;4996004;28;20214;-75
2023/03/28 10:56:57;;;;;;;5.07;2.10;;;10.20;84.20;;;;;;4996656;28;20688;-75
2023/03/28 10:59:42;;;;;;;4.17;1.73;;;9.60;75.30;;;;;;4999548;28;20229;-75
2023/03/28 11:02:33;;;;;;;3.00;1.67;;;8.90;76.10;;;;;;4998673;28;20608;-75
2023/03/28 11:05:20;;;;;;;3.33;1.70;;;8.80;80.10;;;;;;4999147;28;20225;-75
2023/03/28 11:07:58;;;;;;;3.30;1.83;;;9.10;77.20;;;;;;4996014;28;20190;-74
2023/03/28 11:10:36;;;;;;;5.40;2.20;;;9.70;77.20;;;;;;4997264;28;20194;-74
2023/03/28 11:13:17;;;;;;;4.70;2.00;;;9.60;73.50;;;;;;4997504;28;20216;-75
2023/03/28 11:15:53;;;;;;;5.10;2.30;;;8.40;77.70;;;;;;4997549;28;20214;-74
2023/03/28 11:18:33;;;;;;;3.87;2.00;;;8.50;80.80;;;;;;4999653;28;20248;-75
2023/03/28 11:21:15;;;;;;;2.90;1.57;;;9.30;75.10;;;;;;4997667;28;20197;-75
2023/03/28 11:23:44;;;;;;;2.90;1.80;;;10.20;70.70;;;;;;5004414;28;20207;-74
2023/03/28 11:26:15;;;;;;;3.43;1.63;;;10.80;68.80;;;;;;5010329;28;20214;-75
2023/03/28 11:29:09;;;;;;;3.60;1.90;;;10.20;65.50;;;;;;4999658;28;20199;-75
2023/03/28 11:31:41;;;;;;;4.70;1.70;;;10.00;70.60;;;;;;4979460;28;20258;-76
2023/03/28 11:34:18;;;;;;;3.17;1.90;;;11.00;68.70;;;;;;4979229;28;20316;-74
2023/03/28 11:36:52;;;;;;;3.13;1.70;;;11.40;69.20;;;;;;4979497;28;20230;-75
2023/03/28 11:39:30;;;;;;;3.13;1.60;;;12.30;68.80;;;;;;4979276;28;20202;-74
2023/03/28 11:42:02;;;;;;;3.73;1.97;;;12.40;65.30;;;;;;4982745;28;20191;-74
2023/03/28 11:44:35;;;;;;;4.97;1.90;;;11.40;61.40;;;;;;4979596;28;20191;-75
2023/03/28 11:47:08;;;;;;;4.40;2.90;;;10.30;64.20;;;;;;4981903;28;20207;-74
2023/03/28 11:49:43;;;;;;;7.10;3.60;;;9.70;66.90;;;;;;4977625;28;20223;-75
2023/03/28 11:52:19;;;;;;;11.20;7.97;;;8.80;69.30;;;;;;4999176;28;20342;-75
2023/03/28 11:54:50;;;;;;;10.10;5.90;;;8.10;74.70;;;;;;4976717;28;20301;-74
2023/03/28 11:57:27;;;;;;;4.57;1.90;;;7.70;80.40;;;;;;4978069;28;20214;-73
2023/03/28 11:59:59;;;;;;;3.20;1.67;;;7.30;78.40;;;;;;4976839;28;20249;-75
2023/03/28 12:02:42;;;;;;;3.47;1.70;;;7.20;80.20;;;;;;4979445;28;20202;-73
2023/03/28 12:05:21;;;;;;;3.87;1.80;;;7.40;83.30;;;;;;4993323;28;20649;-75
2023/03/28 12:07:55;;;;;;;5.40;1.77;;;7.80;83.30;;;;;;4993035;28;20229;-74
2023/03/28 12:10:26;;;;;;;3.33;1.70;;;8.00;80.00;;;;;;4991301;28;20208;-75
2023/03/28 12:13:03;;;;;;;3.43;1.43;;;8.20;81.50;;;;;;4992257;28;20268;-73
2023/03/28 12:15:39;;;;;;;4.20;1.87;;;9.00;76.80;;;;;;4994105;28;20281;-75
2023/03/28 12:18:13;;;;;;;3.97;1.90;;;9.30;74.00;;;;;;4993981;28;20293;-73
2023/03/28 12:20:50;;;;;;;4.10;1.70;;;9.10;71.70;;;;;;4988778;28;20198;-73
2023/03/28 12:23:27;;;;;;;3.83;1.93;;;9.40;73.10;;;;;;4991842;28;20268;-75
2023/03/28 12:26:06;;;;;;;3.17;1.63;;;9.40;73.50;;;;;;4991762;28;20624;-75
2023/03/28 12:28:41;;;;;;;4.57;1.87;;;9.60;73.50;;;;;;4990598;28;20298;-74
2023/03/28 12:31:14;;;;;;;4.73;1.83;;;9.90;74.10;;;;;;4993824;28;20237;-75
2023/03/28 12:33:53;;;;;;;2.27;1.53;;;9.90;68.20;;;;;;4993394;28;20314;-73
2023/03/28 12:36:27;;;;;;;4.60;1.67;;;10.20;64.30;;;;;;4990787;28;20675;-74
2023/03/28 12:39:00;;;;;;;4.23;1.80;;;10.20;67.50;;;;;;4991812;28;20225;-73
2023/03/28 12:41:31;;;;;;;3.37;1.83;;;10.50;69.80;;;;;;4990362;28;20195;-75
2023/03/28 12:44:05;;;;;;;2.80;1.60;;;10.60;66.60;;;;;;4976006;28;20210;-75
2023/03/28 12:46:37;;;;;;;4.00;1.80;;;10.30;65.30;;;;;;4994032;28;20194;-74
2023/03/28 12:49:11;;;;;;;5.57;1.70;;;10.40;69.10;;;;;;4990970;28;20211;-74
2023/03/28 12:51:45;;;;;;;4.27;1.87;;;10.40;66.00;;;;;;4974743;28;20215;-74
2023/03/28 12:54:25;;;;;;;2.67;1.40;;;10.20;68.20;;;;;;4991907;28;20209;-75
2023/03/28 12:57:03;;;;;;;3.17;1.53;;;10.20;67.40;;;;;;4996983;28;20707;-74
2023/03/28 12:59:58;;;;;;;3.63;1.70;;;10.70;70.20;;;;;;4989567;28;20505;-75
2023/03/28 13:02:34;;;;;;;3.10;1.50;;;10.30;68.10;;;;;;4995325;28;20249;-75
2023/03/28 13:05:10;;;;;;;2.47;1.60;;;10.40;68.00;;;;;;5004281;28;20190;-74
2023/03/28 13:07:55;;;;;;;3.80;1.70;;;10.10;70.10;;;;;;4993571;28;20217;-74
2023/03/28 13:10:32;;;;;;;4.20;1.80;;;10.10;71.20;;;;;;4981766;28;20205;-74
2023/03/28 13:13:13;;;;;;;3.97;1.77;;;10.40;70.00;;;;;;4993051;28;20688;-73
2023/03/28 13:16:01;;;;;;;3.37;1.90;;;9.80;67.30;;;;;;4981280;28;20217;-74